ADDS METAR Data INFO
IDs: Format: Raw Decoded Include TAF

Data at: 2239 UTC 22 Aug 2017

KDTO 222153Z 14005KT 10SM FEW060 35/22 A2997 RMK AO2 SLP139 T03500217
KDTO 222053Z 00000KT 10SM CLR 35/22 A2999 RMK AO2 LTG DSNT NW SLP146 T03500217 58020
KDTO 221953Z 14006KT 10SM FEW060 35/22 A3002 RMK AO2 SLP155 T03500222
KDTO 221853Z 17004KT 10SM CLR 34/22 A3004 RMK AO2 SLP160 T03440222
KDTO 221753Z 23006G17KT 10SM CLR 34/23 A3005 RMK AO2 SLP166 T03390228 10339 20228 58006
KDTO 221653Z 20009KT 10SM CLR 33/23 A3007 RMK AO2 SLP172 T03280233
KDTO 221553Z 24008KT 10SM CLR 32/23 A3007 RMK AO2 SLP172 T03170228
KDTO 221453Z 21009KT 10SM CLR 30/23 A3007 RMK AO2 SLP172 T03000228 51010
KDTO 221353Z 21006KT 10SM CLR 27/23 A3006 RMK AO2 SLP171 T02720228
KDTO 221253Z 17005KT 10SM CLR 24/23 A3005 RMK AO2 SLP167 T02440228
KDTO 221153Z 16005KT 10SM CLR 23/22 A3004 RMK AO2 SLP163 T02330222 10278 20233 53005
KDTO 221053Z AUTO 00000KT 10SM CLR 24/22 A3002 RMK AO2 SLP155 T02440222
KDTO 220953Z AUTO 18005KT 10SM CLR 24/22 A3002 RMK AO2 SLP154 T02390222
KDTO 220853Z AUTO 19006KT 10SM CLR 26/22 A3003 RMK AO2 SLP157 T02560222 58009
KDTO 220753Z AUTO 18009KT 10SM CLR 27/22 A3003 RMK AO2 SLP159 T02670222
KDTO 220653Z AUTO 17007KT 10SM CLR 27/23 A3005 RMK AO2 SLP165 T02670228
KDTO 220553Z AUTO 16009KT 10SM CLR 28/22 A3005 RMK AO2 SLP166 T02780222 10328 20261 403440244 50002
KDTO 220453Z AUTO 16009KT 10SM CLR 28/22 A3006 RMK AO2 SLP169 T02780222
KDTO 220353Z AUTO 15006KT 10SM CLR 27/22 A3006 RMK AO2 SLP168 T02720222
KDTO 220253Z 15005KT 10SM CLR 28/22 A3005 RMK AO2 SLP164 T02780222 53016
KDTO 220153Z 13008KT 10SM FEW065 29/22 A3002 RMK AO2 SLP154 T02940217
KDTO 220053Z 15007KT 10SM CLR 31/21 A3000 RMK AO2 SLP149 T03110211
KDTO 212353Z 15009KT 10SM CLR 33/21 A3000 RMK AO2 SLP148 T03280206 10344 20311 58013
KDTO 212253Z 17011KT 10SM CLR 34/21 A3001 RMK AO2 SLP153 T03390211
KDTO 212153Z 13012KT 10SM FEW060 34/22 A3002 RMK AO2 SLP156 T03390217
KDTO 212053Z 17010G15KT 10SM CLR 34/21 A3004 RMK AO2 SLP161 T03390211 58009
KDTO 211953Z 19011KT 10SM CLR 33/21 A3006 RMK AO2 SLP168 T03330211
KDTO 211853Z 14008KT 10SM CLR 32/22 A3006 RMK AO2 SLP168 T03220217
KDTO 211753Z 16006KT 10SM CLR 32/22 A3006 RMK AO2 SLP170 T03170217 10328 20244 58007
KDTO 211653Z 19008KT 10SM CLR 32/22 A3008 RMK AO2 SLP176 T03220222
KDTO 211553Z 20006KT 10SM CLR 31/22 A3008 RMK AO2 SLP177 T03110222
KDTO 211453Z 21008KT 10SM CLR 30/22 A3009 RMK AO2 SLP177 T03000217 53012
KDTO 211353Z 20006KT 10SM CLR 28/22 A3007 RMK AO2 SLP173 T02830222
KDTO 211253Z 15007KT 10SM CLR 26/22 A3006 RMK AO2 SLP168 T02610222
KDTO 211153Z 16006KT 10SM CLR 25/22 A3005 RMK AO2 SLP166 T02500222 10289 20244 53003
KDTO 211053Z 15007KT 10SM CLR 25/22 A3004 RMK AO2 SLP162 T02500222